sensor_id;sensor_type;location;lat;lon;timestamp;P1;durP1;ratioP1;P2;durP2;ratioP2
20880;SDS011;10600;53.096;8.802;2022-11-18T00:00:22;35.33;;;17.08;;
20880;SDS011;10600;53.096;8.802;2022-11-18T00:01:26;32.00;;;16.42;;
20880;SDS011;10600;53.096;8.802;2022-11-18T00:02:26;37.10;;;17.48;;
20880;SDS011;10600;53.096;8.802;2022-11-18T00:03:28;34.28;;;17.58;;
20880;SDS011;10600;53.096;8.802;2022-11-18T00:04:44;34.28;;;17.45;;
20880;SDS011;10600;53.096;8.802;2022-11-18T00:05:52;31.60;;;16.30;;
20880;SDS011;10600;53.096;8.802;2022-11-18T00:06:53;36.08;;;17.98;;
20880;SDS011;10600;53.096;8.802;2022-11-18T00:07:54;36.30;;;18.48;;
20880;SDS011;10600;53.096;8.802;2022-11-18T00:08:56;35.63;;;18.48;;
20880;SDS011;10600;53.096;8.802;2022-11-18T00:09:58;41.58;;;17.92;;
20880;SDS011;10600;53.096;8.802;2022-11-18T00:11:03;37.05;;;17.48;;
20880;SDS011;10600;53.096;8.802;2022-11-18T00:12:05;39.38;;;18.38;;
20880;SDS011;10600;53.096;8.802;2022-11-18T00:13:30;33.22;;;17.55;;
20880;SDS011;10600;53.096;8.802;2022-11-18T00:14:50;39.72;;;17.33;;
20880;SDS011;10600;53.096;8.802;2022-11-18T00:15:58;35.05;;;17.05;;
20880;SDS011;10600;53.096;8.802;2022-11-18T00:17:03;38.08;;;18.65;;
20880;SDS011;10600;53.096;8.802;2022-11-18T00:18:11;33.20;;;17.38;;
20880;SDS011;10600;53.096;8.802;2022-11-18T00:19:12;33.65;;;17.45;;
20880;SDS011;10600;53.096;8.802;2022-11-18T00:20:16;32.42;;;16.63;;
20880;SDS011;10600;53.096;8.802;2022-11-18T00:21:16;31.92;;;16.25;;
20880;SDS011;10600;53.096;8.802;2022-11-18T00:22:17;34.65;;;17.02;;
20880;SDS011;10600;53.096;8.802;2022-11-18T00:23:18;36.45;;;17.15;;
20880;SDS011;10600;53.096;8.802;2022-11-18T00:24:18;34.65;;;17.02;;
20880;SDS011;10600;53.096;8.802;2022-11-18T00:25:20;36.50;;;18.08;;
20880;SDS011;10600;53.096;8.802;2022-11-18T00:26:20;37.22;;;17.15;;
20880;SDS011;10600;53.096;8.802;2022-11-18T00:27:21;35.35;;;18.00;;
20880;SDS011;10600;53.096;8.802;2022-11-18T00:28:22;31.85;;;15.73;;
20880;SDS011;10600;53.096;8.802;2022-11-18T00:29:23;34.95;;;17.10;;
20880;SDS011;10600;53.096;8.802;2022-11-18T00:30:27;33.53;;;16.15;;
20880;SDS011;10600;53.096;8.802;2022-11-18T00:31:28;32.60;;;16.88;;
20880;SDS011;10600;53.096;8.802;2022-11-18T00:32:28;35.70;;;16.52;;
20880;SDS011;10600;53.096;8.802;2022-11-18T00:33:29;40.28;;;18.13;;
20880;SDS011;10600;53.096;8.802;2022-11-18T00:34:30;35.53;;;16.92;;
20880;SDS011;10600;53.096;8.802;2022-11-18T00:35:31;32.03;;;16.15;;
20880;SDS011;10600;53.096;8.802;2022-11-18T00:36:31;38.75;;;18.05;;
20880;SDS011;10600;53.096;8.802;2022-11-18T00:37:32;37.83;;;18.30;;
20880;SDS011;10600;53.096;8.802;2022-11-18T00:38:33;37.15;;;17.30;;
20880;SDS011;10600;53.096;8.802;2022-11-18T00:39:34;38.70;;;18.10;;
20880;SDS011;10600;53.096;8.802;2022-11-18T00:40:34;40.90;;;18.05;;
20880;SDS011;10600;53.096;8.802;2022-11-18T00:41:35;35.72;;;17.45;;
20880;SDS011;10600;53.096;8.802;2022-11-18T00:42:54;35.45;;;15.60;;
20880;SDS011;10600;53.096;8.802;2022-11-18T00:43:55;37.97;;;18.02;;
20880;SDS011;10600;53.096;8.802;2022-11-18T00:44:56;38.58;;;18.55;;
20880;SDS011;10600;53.096;8.802;2022-11-18T00:45:56;37.20;;;17.92;;
20880;SDS011;10600;53.096;8.802;2022-11-18T00:46:57;35.92;;;17.45;;
20880;SDS011;10600;53.096;8.802;2022-11-18T00:47:58;39.30;;;18.45;;
20880;SDS011;10600;53.096;8.802;2022-11-18T00:48:58;35.97;;;17.55;;
20880;SDS011;10600;53.096;8.802;2022-11-18T00:49:59;33.80;;;16.75;;
20880;SDS011;10600;53.096;8.802;2022-11-18T00:52:14;35.83;;;16.13;;
20880;SDS011;10600;53.096;8.802;2022-11-18T00:53:18;38.53;;;18.08;;
20880;SDS011;10600;53.096;8.802;2022-11-18T00:54:20;38.70;;;17.60;;
20880;SDS011;10600;53.096;8.802;2022-11-18T00:55:20;36.95;;;17.17;;
20880;SDS011;10600;53.096;8.802;2022-11-18T00:56:21;40.53;;;18.13;;
20880;SDS011;10600;53.096;8.802;2022-11-18T00:57:22;36.42;;;17.60;;
20880;SDS011;10600;53.096;8.802;2022-11-18T00:58:22;37.40;;;16.80;;
20880;SDS011;10600;53.096;8.802;2022-11-18T00:59:23;38.80;;;17.40;;
20880;SDS011;10600;53.096;8.802;2022-11-18T01:00:24;39.58;;;17.35;;
20880;SDS011;10600;53.096;8.802;2022-11-18T01:01:25;37.30;;;18.25;;
20880;SDS011;10600;53.096;8.802;2022-11-18T01:02:26;41.35;;;18.25;;
20880;SDS011;10600;53.096;8.802;2022-11-18T01:03:27;37.28;;;17.98;;
20880;SDS011;10600;53.096;8.802;2022-11-18T01:04:28;35.92;;;16.60;;
20880;SDS011;10600;53.096;8.802;2022-11-18T01:05:29;33.03;;;17.05;;
20880;SDS011;10600;53.096;8.802;2022-11-18T01:06:29;38.55;;;17.92;;
20880;SDS011;10600;53.096;8.802;2022-11-18T01:07:30;35.13;;;17.10;;
20880;SDS011;10600;53.096;8.802;2022-11-18T01:08:31;36.67;;;16.25;;
20880;SDS011;10600;53.096;8.802;2022-11-18T01:09:31;41.97;;;17.85;;
20880;SDS011;10600;53.096;8.802;2022-11-18T01:10:32;36.10;;;16.73;;
20880;SDS011;10600;53.096;8.802;2022-11-18T01:11:33;38.75;;;16.48;;
20880;SDS011;10600;53.096;8.802;2022-11-18T01:12:52;35.15;;;16.60;;
20880;SDS011;10600;53.096;8.802;2022-11-18T01:14:12;35.70;;;15.55;;
20880;SDS011;10600;53.096;8.802;2022-11-18T01:15:12;33.92;;;17.17;;
20880;SDS011;10600;53.096;8.802;2022-11-18T01:16:16;37.72;;;17.20;;
20880;SDS011;10600;53.096;8.802;2022-11-18T01:17:24;36.25;;;17.40;;
20880;SDS011;10600;53.096;8.802;2022-11-18T01:18:29;38.95;;;16.95;;
20880;SDS011;10600;53.096;8.802;2022-11-18T01:19:30;37.20;;;17.10;;
20880;SDS011;10600;53.096;8.802;2022-11-18T01:20:31;38.92;;;16.92;;
20880;SDS011;10600;53.096;8.802;2022-11-18T01:21:32;36.42;;;17.45;;
20880;SDS011;10600;53.096;8.802;2022-11-18T01:22:33;38.97;;;17.05;;
20880;SDS011;10600;53.096;8.802;2022-11-18T01:23:33;39.58;;;16.92;;
20880;SDS011;10600;53.096;8.802;2022-11-18T01:24:34;32.10;;;17.15;;
20880;SDS011;10600;53.096;8.802;2022-11-18T01:25:35;35.30;;;16.48;;
20880;SDS011;10600;53.096;8.802;2022-11-18T01:26:37;37.05;;;16.63;;
20880;SDS011;10600;53.096;8.802;2022-11-18T01:27:38;36.25;;;16.23;;
20880;SDS011;10600;53.096;8.802;2022-11-18T01:28:38;32.63;;;16.35;;
20880;SDS011;10600;53.096;8.802;2022-11-18T01:29:39;36.00;;;17.70;;
20880;SDS011;10600;53.096;8.802;2022-11-18T01:30:40;38.13;;;16.60;;
20880;SDS011;10600;53.096;8.802;2022-11-18T01:31:41;34.17;;;16.13;;
20880;SDS011;10600;53.096;8.802;2022-11-18T01:32:42;35.17;;;17.08;;
20880;SDS011;10600;53.096;8.802;2022-11-18T01:33:43;39.42;;;16.88;;
20880;SDS011;10600;53.096;8.802;2022-11-18T01:34:45;34.33;;;17.08;;
20880;SDS011;10600;53.096;8.802;2022-11-18T01:35:45;35.88;;;17.23;;
20880;SDS011;10600;53.096;8.802;2022-11-18T01:36:46;35.60;;;16.88;;
20880;SDS011;10600;53.096;8.802;2022-11-18T01:37:47;36.08;;;17.88;;
20880;SDS011;10600;53.096;8.802;2022-11-18T01:38:48;37.88;;;16.52;;
20880;SDS011;10600;53.096;8.802;2022-11-18T01:39:49;36.40;;;17.02;;
20880;SDS011;10600;53.096;8.802;2022-11-18T01:40:50;39.63;;;17.05;;
20880;SDS011;10600;53.096;8.802;2022-11-18T01:41:50;37.15;;;17.05;;
20880;SDS011;10600;53.096;8.802;2022-11-18T01:42:51;35.95;;;16.33;;
20880;SDS011;10600;53.096;8.802;2022-11-18T01:43:56;37.28;;;16.88;;
20880;SDS011;10600;53.096;8.802;2022-11-18T01:45:06;35.42;;;17.25;;
20880;SDS011;10600;53.096;8.802;2022-11-18T01:46:19;36.97;;;16.65;;
20880;SDS011;10600;53.096;8.802;2022-11-18T01:47:22;36.80;;;16.85;;
20880;SDS011;10600;53.096;8.802;2022-11-18T01:49:30;33.45;;;15.82;;
20880;SDS011;10600;53.096;8.802;2022-11-18T01:50:31;34.28;;;15.52;;
20880;SDS011;10600;53.096;8.802;2022-11-18T01:51:36;35.08;;;16.92;;
20880;SDS011;10600;53.096;8.802;2022-11-18T01:52:43;38.22;;;17.38;;
20880;SDS011;10600;53.096;8.802;2022-11-18T01:53:47;32.42;;;16.60;;
20880;SDS011;10600;53.096;8.802;2022-11-18T01:54:51;36.00;;;17.02;;
20880;SDS011;10600;53.096;8.802;2022-11-18T01:55:56;30.55;;;15.23;;
20880;SDS011;10600;53.096;8.802;2022-11-18T01:57:02;33.47;;;16.08;;
20880;SDS011;10600;53.096;8.802;2022-11-18T01:58:11;29.40;;;14.05;;
20880;SDS011;10600;53.096;8.802;2022-11-18T01:59:17;33.50;;;16.17;;
20880;SDS011;10600;53.096;8.802;2022-11-18T02:00:21;33.72;;;16.05;;
20880;SDS011;10600;53.096;8.802;2022-11-18T02:01:21;30.70;;;14.88;;
20880;SDS011;10600;53.096;8.802;2022-11-18T02:02:22;35.35;;;15.27;;
20880;SDS011;10600;53.096;8.802;2022-11-18T02:03:23;31.77;;;13.88;;
20880;SDS011;10600;53.096;8.802;2022-11-18T02:04:25;28.13;;;14.88;;
20880;SDS011;10600;53.096;8.802;2022-11-18T02:05:26;31.00;;;15.18;;
20880;SDS011;10600;53.096;8.802;2022-11-18T02:06:28;30.00;;;14.25;;
20880;SDS011;10600;53.096;8.802;2022-11-18T02:07:32;27.83;;;13.68;;
20880;SDS011;10600;53.096;8.802;2022-11-18T02:08:36;27.35;;;13.45;;
20880;SDS011;10600;53.096;8.802;2022-11-18T02:09:38;26.30;;;13.40;;
20880;SDS011;10600;53.096;8.802;2022-11-18T02:10:39;27.17;;;13.45;;
20880;SDS011;10600;53.096;8.802;2022-11-18T02:11:40;25.73;;;12.35;;
20880;SDS011;10600;53.096;8.802;2022-11-18T02:12:50;26.13;;;13.38;;
20880;SDS011;10600;53.096;8.802;2022-11-18T02:13:52;30.23;;;13.85;;
20880;SDS011;10600;53.096;8.802;2022-11-18T02:14:52;24.92;;;13.10;;
20880;SDS011;10600;53.096;8.802;2022-11-18T02:22:01;27.65;;;12.77;;
20880;SDS011;10600;53.096;8.802;2022-11-18T02:24:25;26.77;;;12.27;;
20880;SDS011;10600;53.096;8.802;2022-11-18T02:25:46;22.38;;;10.98;;
20880;SDS011;10600;53.096;8.802;2022-11-18T02:30:03;20.77;;;10.35;;
20880;SDS011;10600;53.096;8.802;2022-11-18T02:32:32;25.10;;;11.73;;
20880;SDS011;10600;53.096;8.802;2022-11-18T02:33:48;21.05;;;11.30;;
20880;SDS011;10600;53.096;8.802;2022-11-18T02:35:17;25.65;;;11.65;;
20880;SDS011;10600;53.096;8.802;2022-11-18T02:36:39;24.35;;;11.10;;
20880;SDS011;10600;53.096;8.802;2022-11-18T02:39:07;21.38;;;11.35;;
20880;SDS011;10600;53.096;8.802;2022-11-18T02:40:20;24.10;;;11.63;;
20880;SDS011;10600;53.096;8.802;2022-11-18T02:41:25;21.90;;;11.82;;
20880;SDS011;10600;53.096;8.802;2022-11-18T02:42:29;22.95;;;11.55;;
20880;SDS011;10600;53.096;8.802;2022-11-18T02:43:37;23.73;;;11.35;;
20880;SDS011;10600;53.096;8.802;2022-11-18T02:44:41;22.95;;;12.45;;
20880;SDS011;10600;53.096;8.802;2022-11-18T02:45:47;22.88;;;11.13;;
20880;SDS011;10600;53.096;8.802;2022-11-18T02:46:54;23.67;;;11.25;;
20880;SDS011;10600;53.096;8.802;2022-11-18T02:48:00;21.95;;;10.63;;
20880;SDS011;10600;53.096;8.802;2022-11-18T02:49:04;23.00;;;11.65;;
20880;SDS011;10600;53.096;8.802;2022-11-18T02:50:10;22.65;;;11.10;;
20880;SDS011;10600;53.096;8.802;2022-11-18T02:51:16;26.95;;;12.07;;
20880;SDS011;10600;53.096;8.802;2022-11-18T02:52:21;25.10;;;11.48;;
20880;SDS011;10600;53.096;8.802;2022-11-18T02:53:23;20.85;;;11.07;;
20880;SDS011;10600;53.096;8.802;2022-11-18T02:54:27;20.05;;;10.35;;
20880;SDS011;10600;53.096;8.802;2022-11-18T02:55:29;20.77;;;11.63;;
20880;SDS011;10600;53.096;8.802;2022-11-18T02:56:33;21.73;;;11.05;;
20880;SDS011;10600;53.096;8.802;2022-11-18T02:57:35;22.25;;;11.60;;
20880;SDS011;10600;53.096;8.802;2022-11-18T02:58:38;20.02;;;11.82;;
20880;SDS011;10600;53.096;8.802;2022-11-18T02:59:38;23.90;;;11.90;;
20880;SDS011;10600;53.096;8.802;2022-11-18T03:00:39;21.75;;;12.13;;
20880;SDS011;10600;53.096;8.802;2022-11-18T03:01:40;22.30;;;11.80;;
20880;SDS011;10600;53.096;8.802;2022-11-18T03:02:44;21.13;;;11.18;;
20880;SDS011;10600;53.096;8.802;2022-11-18T03:03:47;23.77;;;11.40;;
20880;SDS011;10600;53.096;8.802;2022-11-18T03:04:48;22.80;;;11.40;;
20880;SDS011;10600;53.096;8.802;2022-11-18T03:07:20;21.60;;;11.30;;
20880;SDS011;10600;53.096;8.802;2022-11-18T03:08:33;22.48;;;11.35;;
20880;SDS011;10600;53.096;8.802;2022-11-18T03:09:39;24.58;;;11.77;;
20880;SDS011;10600;53.096;8.802;2022-11-18T03:10:47;25.10;;;11.93;;
20880;SDS011;10600;53.096;8.802;2022-11-18T03:13:04;22.58;;;11.75;;
20880;SDS011;10600;53.096;8.802;2022-11-18T03:14:35;22.23;;;11.82;;
20880;SDS011;10600;53.096;8.802;2022-11-18T03:16:13;25.95;;;11.85;;
20880;SDS011;10600;53.096;8.802;2022-11-18T03:18:52;24.25;;;12.57;;
20880;SDS011;10600;53.096;8.802;2022-11-18T03:20:22;28.20;;;13.05;;
20880;SDS011;10600;53.096;8.802;2022-11-18T03:21:33;24.65;;;13.10;;
20880;SDS011;10600;53.096;8.802;2022-11-18T03:22:39;22.83;;;11.30;;
20880;SDS011;10600;53.096;8.802;2022-11-18T03:23:54;28.60;;;12.95;;
20880;SDS011;10600;53.096;8.802;2022-11-18T03:25:11;23.35;;;12.48;;
20880;SDS011;10600;53.096;8.802;2022-11-18T03:26:25;22.90;;;12.50;;
20880;SDS011;10600;53.096;8.802;2022-11-18T03:27:35;25.23;;;12.85;;
20880;SDS011;10600;53.096;8.802;2022-11-18T03:28:49;25.27;;;11.52;;
20880;SDS011;10600;53.096;8.802;2022-11-18T03:30:02;28.52;;;13.02;;
20880;SDS011;10600;53.096;8.802;2022-11-18T03:31:08;22.77;;;12.23;;
20880;SDS011;10600;53.096;8.802;2022-11-18T03:32:18;21.23;;;11.07;;
20880;SDS011;10600;53.096;8.802;2022-11-18T03:33:27;23.63;;;12.73;;
20880;SDS011;10600;53.096;8.802;2022-11-18T03:34:46;20.67;;;11.13;;
20880;SDS011;10600;53.096;8.802;2022-11-18T03:35:51;21.50;;;11.77;;
20880;SDS011;10600;53.096;8.802;2022-11-18T03:36:55;25.75;;;12.35;;
20880;SDS011;10600;53.096;8.802;2022-11-18T03:37:59;25.77;;;12.25;;
20880;SDS011;10600;53.096;8.802;2022-11-18T03:39:06;23.02;;;12.02;;
20880;SDS011;10600;53.096;8.802;2022-11-18T03:40:17;21.83;;;12.15;;
20880;SDS011;10600;53.096;8.802;2022-11-18T03:41:20;22.85;;;11.85;;
20880;SDS011;10600;53.096;8.802;2022-11-18T03:42:34;24.05;;;12.85;;
20880;SDS011;10600;53.096;8.802;2022-11-18T03:43:42;23.35;;;12.70;;
20880;SDS011;10600;53.096;8.802;2022-11-18T03:44:53;23.45;;;12.57;;
20880;SDS011;10600;53.096;8.802;2022-11-18T03:46:01;23.77;;;12.68;;
20880;SDS011;10600;53.096;8.802;2022-11-18T03:47:15;24.25;;;13.40;;
20880;SDS011;10600;53.096;8.802;2022-11-18T03:48:40;28.00;;;13.25;;
20880;SDS011;10600;53.096;8.802;2022-11-18T03:49:48;23.83;;;12.85;;
20880;SDS011;10600;53.096;8.802;2022-11-18T03:51:00;26.92;;;12.68;;
20880;SDS011;10600;53.096;8.802;2022-11-18T03:52:16;25.02;;;12.80;;
20880;SDS011;10600;53.096;8.802;2022-11-18T03:53:21;25.75;;;13.23;;
20880;SDS011;10600;53.096;8.802;2022-11-18T03:54:26;24.75;;;13.07;;
20880;SDS011;10600;53.096;8.802;2022-11-18T03:55:31;25.65;;;13.48;;
20880;SDS011;10600;53.096;8.802;2022-11-18T03:56:37;24.95;;;13.25;;
20880;SDS011;10600;53.096;8.802;2022-11-18T03:57:44;28.20;;;13.38;;
20880;SDS011;10600;53.096;8.802;2022-11-18T03:58:53;24.77;;;13.02;;
20880;SDS011;10600;53.096;8.802;2022-11-18T04:00:16;27.88;;;13.52;;
20880;SDS011;10600;53.096;8.802;2022-11-18T04:01:28;23.80;;;12.50;;
20880;SDS011;10600;53.096;8.802;2022-11-18T04:02:34;27.70;;;13.80;;
20880;SDS011;10600;53.096;8.802;2022-11-18T04:03:36;24.58;;;13.07;;
20880;SDS011;10600;53.096;8.802;2022-11-18T04:04:37;25.33;;;12.98;;
20880;SDS011;10600;53.096;8.802;2022-11-18T04:05:39;27.52;;;14.00;;
20880;SDS011;10600;53.096;8.802;2022-11-18T04:06:44;27.15;;;13.25;;
20880;SDS011;10600;53.096;8.802;2022-11-18T04:07:56;27.40;;;13.75;;
20880;SDS011;10600;53.096;8.802;2022-11-18T04:09:02;32.72;;;14.93;;
20880;SDS011;10600;53.096;8.802;2022-11-18T04:10:29;29.27;;;14.30;;
20880;SDS011;10600;53.096;8.802;2022-11-18T04:11:40;27.48;;;14.52;;
20880;SDS011;10600;53.096;8.802;2022-11-18T04:13:09;32.05;;;13.85;;
20880;SDS011;10600;53.096;8.802;2022-11-18T04:14:17;30.63;;;14.90;;
20880;SDS011;10600;53.096;8.802;2022-11-18T04:15:19;30.60;;;15.38;;
20880;SDS011;10600;53.096;8.802;2022-11-18T04:16:20;28.10;;;14.75;;
20880;SDS011;10600;53.096;8.802;2022-11-18T04:17:21;32.35;;;15.60;;
20880;SDS011;10600;53.096;8.802;2022-11-18T04:18:25;31.35;;;15.38;;
20880;SDS011;10600;53.096;8.802;2022-11-18T04:19:26;30.80;;;15.13;;
20880;SDS011;10600;53.096;8.802;2022-11-18T04:20:27;34.28;;;16.45;;
20880;SDS011;10600;53.096;8.802;2022-11-18T04:21:28;35.13;;;15.45;;
20880;SDS011;10600;53.096;8.802;2022-11-18T04:22:28;34.17;;;17.15;;
20880;SDS011;10600;53.096;8.802;2022-11-18T04:23:29;29.10;;;15.02;;
20880;SDS011;10600;53.096;8.802;2022-11-18T04:24:29;32.33;;;16.20;;
20880;SDS011;10600;53.096;8.802;2022-11-18T04:25:30;33.75;;;16.60;;
20880;SDS011;10600;53.096;8.802;2022-11-18T04:26:31;32.42;;;15.68;;
20880;SDS011;10600;53.096;8.802;2022-11-18T04:27:32;30.00;;;15.73;;
20880;SDS011;10600;53.096;8.802;2022-11-18T04:28:32;29.75;;;15.25;;
20880;SDS011;10600;53.096;8.802;2022-11-18T04:29:33;31.85;;;16.25;;
20880;SDS011;10600;53.096;8.802;2022-11-18T04:30:34;32.28;;;16.85;;
20880;SDS011;10600;53.096;8.802;2022-11-18T04:31:35;34.92;;;17.35;;
20880;SDS011;10600;53.096;8.802;2022-11-18T04:32:35;32.88;;;16.58;;
20880;SDS011;10600;53.096;8.802;2022-11-18T04:33:36;33.42;;;16.63;;
20880;SDS011;10600;53.096;8.802;2022-11-18T04:34:36;30.92;;;16.42;;
20880;SDS011;10600;53.096;8.802;2022-11-18T04:35:37;30.77;;;16.80;;
20880;SDS011;10600;53.096;8.802;2022-11-18T04:36:38;31.23;;;16.30;;
20880;SDS011;10600;53.096;8.802;2022-11-18T04:37:38;32.80;;;16.42;;
20880;SDS011;10600;53.096;8.802;2022-11-18T04:38:39;37.35;;;16.38;;
20880;SDS011;10600;53.096;8.802;2022-11-18T04:39:39;32.40;;;15.23;;
20880;SDS011;10600;53.096;8.802;2022-11-18T04:40:40;33.13;;;14.57;;
20880;SDS011;10600;53.096;8.802;2022-11-18T04:41:41;36.85;;;16.75;;
20880;SDS011;10600;53.096;8.802;2022-11-18T04:42:56;32.70;;;15.90;;
20880;SDS011;10600;53.096;8.802;2022-11-18T04:43:57;32.70;;;15.85;;
20880;SDS011;10600;53.096;8.802;2022-11-18T04:44:58;32.83;;;15.15;;
20880;SDS011;10600;53.096;8.802;2022-11-18T04:45:58;34.30;;;16.02;;
20880;SDS011;10600;53.096;8.802;2022-11-18T04:47:00;34.78;;;16.80;;
20880;SDS011;10600;53.096;8.802;2022-11-18T04:48:02;36.75;;;16.10;;
20880;SDS011;10600;53.096;8.802;2022-11-18T04:49:03;33.42;;;16.17;;
20880;SDS011;10600;53.096;8.802;2022-11-18T04:50:04;31.75;;;15.10;;
20880;SDS011;10600;53.096;8.802;2022-11-18T04:51:05;34.75;;;16.30;;
20880;SDS011;10600;53.096;8.802;2022-11-18T04:52:06;34.35;;;17.67;;
20880;SDS011;10600;53.096;8.802;2022-11-18T04:53:07;32.15;;;14.93;;
20880;SDS011;10600;53.096;8.802;2022-11-18T04:54:08;30.80;;;16.13;;
20880;SDS011;10600;53.096;8.802;2022-11-18T04:55:09;34.08;;;15.90;;
20880;SDS011;10600;53.096;8.802;2022-11-18T04:56:09;36.95;;;16.15;;
20880;SDS011;10600;53.096;8.802;2022-11-18T04:57:10;35.30;;;16.08;;
20880;SDS011;10600;53.096;8.802;2022-11-18T04:58:11;34.70;;;15.90;;
20880;SDS011;10600;53.096;8.802;2022-11-18T04:59:12;38.03;;;17.58;;
20880;SDS011;10600;53.096;8.802;2022-11-18T05:00:14;35.00;;;15.82;;
20880;SDS011;10600;53.096;8.802;2022-11-18T05:01:15;33.10;;;16.40;;
20880;SDS011;10600;53.096;8.802;2022-11-18T05:02:16;35.05;;;16.05;;
20880;SDS011;10600;53.096;8.802;2022-11-18T05:03:16;29.75;;;15.88;;
20880;SDS011;10600;53.096;8.802;2022-11-18T05:04:18;36.85;;;16.48;;
20880;SDS011;10600;53.096;8.802;2022-11-18T05:05:20;32.30;;;15.68;;
20880;SDS011;10600;53.096;8.802;2022-11-18T05:06:21;36.17;;;16.35;;
20880;SDS011;10600;53.096;8.802;2022-11-18T05:07:22;36.38;;;17.30;;
20880;SDS011;10600;53.096;8.802;2022-11-18T05:08:23;33.10;;;15.23;;
20880;SDS011;10600;53.096;8.802;2022-11-18T05:09:24;32.78;;;15.45;;
20880;SDS011;10600;53.096;8.802;2022-11-18T05:10:25;33.17;;;16.05;;
20880;SDS011;10600;53.096;8.802;2022-11-18T05:11:26;32.30;;;15.95;;
20880;SDS011;10600;53.096;8.802;2022-11-18T05:12:45;35.33;;;15.85;;
20880;SDS011;10600;53.096;8.802;2022-11-18T05:13:49;37.03;;;17.45;;
20880;SDS011;10600;53.096;8.802;2022-11-18T05:14:50;33.15;;;16.73;;
20880;SDS011;10600;53.096;8.802;2022-11-18T05:15:50;34.38;;;15.07;;
20880;SDS011;10600;53.096;8.802;2022-11-18T05:16:51;31.73;;;15.48;;
20880;SDS011;10600;53.096;8.802;2022-11-18T05:17:53;33.90;;;16.02;;
20880;SDS011;10600;53.096;8.802;2022-11-18T05:18:53;38.08;;;17.85;;
20880;SDS011;10600;53.096;8.802;2022-11-18T05:19:54;34.83;;;16.33;;
20880;SDS011;10600;53.096;8.802;2022-11-18T05:20:55;36.08;;;16.00;;
20880;SDS011;10600;53.096;8.802;2022-11-18T05:21:56;35.67;;;17.10;;
20880;SDS011;10600;53.096;8.802;2022-11-18T05:22:56;36.08;;;17.25;;
20880;SDS011;10600;53.096;8.802;2022-11-18T05:24:04;37.28;;;18.08;;
20880;SDS011;10600;53.096;8.802;2022-11-18T05:25:06;37.40;;;17.30;;
20880;SDS011;10600;53.096;8.802;2022-11-18T05:26:07;35.25;;;16.25;;
20880;SDS011;10600;53.096;8.802;2022-11-18T05:27:09;33.78;;;16.65;;
20880;SDS011;10600;53.096;8.802;2022-11-18T05:28:11;36.53;;;17.25;;
20880;SDS011;10600;53.096;8.802;2022-11-18T05:29:11;37.15;;;17.38;;
20880;SDS011;10600;53.096;8.802;2022-11-18T05:30:12;41.17;;;18.23;;
20880;SDS011;10600;53.096;8.802;2022-11-18T05:31:17;37.10;;;16.73;;
20880;SDS011;10600;53.096;8.802;2022-11-18T05:32:18;34.70;;;17.23;;
20880;SDS011;10600;53.096;8.802;2022-11-18T05:33:18;39.33;;;17.98;;
20880;SDS011;10600;53.096;8.802;2022-11-18T05:34:19;39.10;;;18.02;;
20880;SDS011;10600;53.096;8.802;2022-11-18T05:35:20;36.17;;;18.05;;
20880;SDS011;10600;53.096;8.802;2022-11-18T05:36:20;39.95;;;18.65;;
20880;SDS011;10600;53.096;8.802;2022-11-18T05:37:21;39.35;;;18.08;;
20880;SDS011;10600;53.096;8.802;2022-11-18T05:38:22;38.28;;;18.85;;
20880;SDS011;10600;53.096;8.802;2022-11-18T05:39:23;40.70;;;19.50;;
20880;SDS011;10600;53.096;8.802;2022-11-18T05:40:23;40.63;;;18.85;;
20880;SDS011;10600;53.096;8.802;2022-11-18T05:41:24;40.00;;;18.48;;
20880;SDS011;10600;53.096;8.802;2022-11-18T05:42:43;39.33;;;18.83;;
20880;SDS011;10600;53.096;8.802;2022-11-18T05:44:10;37.78;;;18.25;;
20880;SDS011;10600;53.096;8.802;2022-11-18T05:45:11;44.88;;;19.58;;
20880;SDS011;10600;53.096;8.802;2022-11-18T05:46:11;35.65;;;18.15;;
20880;SDS011;10600;53.096;8.802;2022-11-18T05:47:12;40.80;;;18.85;;
20880;SDS011;10600;53.096;8.802;2022-11-18T05:48:13;34.45;;;18.30;;
20880;SDS011;10600;53.096;8.802;2022-11-18T05:49:13;40.55;;;18.05;;
20880;SDS011;10600;53.096;8.802;2022-11-18T05:50:14;39.38;;;18.63;;
20880;SDS011;10600;53.096;8.802;2022-11-18T05:51:15;38.13;;;17.70;;
20880;SDS011;10600;53.096;8.802;2022-11-18T05:52:16;41.05;;;18.50;;
20880;SDS011;10600;53.096;8.802;2022-11-18T05:53:17;41.20;;;18.85;;
20880;SDS011;10600;53.096;8.802;2022-11-18T05:54:19;40.65;;;20.30;;
20880;SDS011;10600;53.096;8.802;2022-11-18T05:55:21;37.95;;;17.85;;
20880;SDS011;10600;53.096;8.802;2022-11-18T05:56:44;40.15;;;18.75;;
20880;SDS011;10600;53.096;8.802;2022-11-18T05:57:45;39.33;;;19.42;;
20880;SDS011;10600;53.096;8.802;2022-11-18T05:58:45;43.45;;;19.75;;
20880;SDS011;10600;53.096;8.802;2022-11-18T05:59:46;38.47;;;19.35;;
20880;SDS011;10600;53.096;8.802;2022-11-18T06:00:47;37.95;;;19.38;;
20880;SDS011;10600;53.096;8.802;2022-11-18T06:01:53;37.30;;;18.23;;
20880;SDS011;10600;53.096;8.802;2022-11-18T06:02:56;39.20;;;18.35;;
20880;SDS011;10600;53.096;8.802;2022-11-18T06:03:58;41.75;;;20.15;;
20880;SDS011;10600;53.096;8.802;2022-11-18T06:05:00;38.38;;;18.02;;
20880;SDS011;10600;53.096;8.802;2022-11-18T06:06:03;40.00;;;19.13;;
20880;SDS011;10600;53.096;8.802;2022-11-18T06:07:07;37.47;;;18.90;;
20880;SDS011;10600;53.096;8.802;2022-11-18T06:08:33;40.05;;;17.98;;
20880;SDS011;10600;53.096;8.802;2022-11-18T06:09:38;39.42;;;17.67;;
20880;SDS011;10600;53.096;8.802;2022-11-18T06:10:42;38.65;;;18.98;;
20880;SDS011;10600;53.096;8.802;2022-11-18T06:11:45;41.70;;;19.77;;
20880;SDS011;10600;53.096;8.802;2022-11-18T06:12:52;38.80;;;18.73;;
20880;SDS011;10600;53.096;8.802;2022-11-18T06:13:59;38.67;;;19.90;;
20880;SDS011;10600;53.096;8.802;2022-11-18T06:15:08;38.05;;;20.02;;
20880;SDS011;10600;53.096;8.802;2022-11-18T06:16:15;36.17;;;18.25;;
20880;SDS011;10600;53.096;8.802;2022-11-18T06:17:21;37.67;;;19.23;;
20880;SDS011;10600;53.096;8.802;2022-11-18T06:18:29;39.53;;;18.70;;
20880;SDS011;10600;53.096;8.802;2022-11-18T06:19:31;39.67;;;19.63;;
20880;SDS011;10600;53.096;8.802;2022-11-18T06:20:32;40.22;;;19.45;;
20880;SDS011;10600;53.096;8.802;2022-11-18T06:21:37;40.33;;;19.20;;
20880;SDS011;10600;53.096;8.802;2022-11-18T06:22:37;36.08;;;18.15;;
20880;SDS011;10600;53.096;8.802;2022-11-18T06:23:38;40.13;;;19.90;;
20880;SDS011;10600;53.096;8.802;2022-11-18T06:24:41;40.22;;;19.63;;
20880;SDS011;10600;53.096;8.802;2022-11-18T06:25:43;38.92;;;19.40;;
20880;SDS011;10600;53.096;8.802;2022-11-18T06:26:44;36.45;;;18.10;;
20880;SDS011;10600;53.096;8.802;2022-11-18T06:27:46;38.70;;;19.30;;
20880;SDS011;10600;53.096;8.802;2022-11-18T06:28:48;35.63;;;19.50;;
20880;SDS011;10600;53.096;8.802;2022-11-18T06:29:49;35.92;;;17.92;;
20880;SDS011;10600;53.096;8.802;2022-11-18T06:30:49;38.47;;;19.48;;
20880;SDS011;10600;53.096;8.802;2022-11-18T06:31:50;38.55;;;18.65;;
20880;SDS011;10600;53.096;8.802;2022-11-18T06:32:50;35.22;;;18.85;;
20880;SDS011;10600;53.096;8.802;2022-11-18T06:33:51;36.60;;;18.58;;
20880;SDS011;10600;53.096;8.802;2022-11-18T06:34:52;36.53;;;19.33;;
20880;SDS011;10600;53.096;8.802;2022-11-18T06:35:52;36.15;;;18.38;;